createdAt,value
2018-08-25T05:49:31.695Z,880
2018-08-25T05:49:51.868Z,896
2018-08-25T05:50:12.035Z,912
2018-08-25T05:50:32.221Z,924
2018-08-25T05:50:52.425Z,936
2018-08-25T05:51:12.674Z,952
2018-08-25T05:51:32.842Z,972
2018-08-25T05:51:53.078Z,996
2018-08-25T05:52:13.259Z,1024
2018-08-25T05:52:33.532Z,1044
2018-08-25T05:52:53.741Z,1068
2018-08-25T05:53:13.895Z,1088
2018-08-25T05:53:34.143Z,1108
2018-08-25T05:53:54.406Z,1140
2018-08-25T05:54:14.644Z,1164
2018-08-25T05:54:34.801Z,1172
2018-08-25T05:54:55.000Z,1160
2018-08-25T05:55:15.156Z,1136
2018-08-25T05:55:35.317Z,1108
2018-08-25T05:55:55.482Z,1068
2018-08-25T05:56:15.683Z,1032
2018-08-25T05:56:35.876Z,1000
2018-08-25T05:56:56.097Z,972
2018-08-25T05:57:16.310Z,960
2018-08-25T05:57:36.610Z,956
2018-08-25T05:57:56.789Z,952
2018-08-25T05:58:16.984Z,944
2018-08-25T05:58:37.218Z,936
2018-08-25T05:58:57.432Z,940
2018-08-25T05:59:17.645Z,956
2018-08-25T05:59:37.862Z,972
2018-08-25T05:59:58.066Z,996
2018-08-25T06:00:18.244Z,1020
2018-08-25T06:00:38.420Z,1040
2018-08-25T06:00:58.640Z,1052
2018-08-25T06:20:08.910Z,572
2018-08-25T06:20:29.008Z,608
2018-08-25T06:20:49.163Z,656
2018-08-25T06:21:09.331Z,700
2018-08-25T06:21:29.490Z,744
2018-08-25T06:21:49.682Z,776
2018-08-25T06:22:09.847Z,804
2018-08-25T06:22:29.989Z,824
2018-08-25T06:22:50.112Z,840
2018-08-25T06:23:10.297Z,836
2018-08-25T06:23:30.455Z,816
2018-08-25T06:23:50.646Z,800
2018-08-25T06:24:10.873Z,796
2018-08-25T06:24:31.041Z,792
2018-08-25T06:24:51.200Z,792
2018-08-25T06:25:11.443Z,780
2018-08-25T06:25:32.550Z,780
2018-08-25T06:25:52.854Z,784
2018-08-25T06:26:13.082Z,776
2018-08-25T06:26:33.394Z,768
2018-08-25T06:26:53.692Z,780
2018-08-25T06:27:13.860Z,800
2018-08-25T06:27:34.120Z,820
2018-08-25T06:27:54.465Z,836
2018-08-25T06:28:14.734Z,844
2018-08-25T06:28:35.938Z,860
2018-08-25T06:28:56.148Z,872
2018-08-25T06:29:16.398Z,884
2018-08-25T06:29:36.698Z,896
2018-08-25T06:29:56.995Z,916
2018-08-25T06:30:18.271Z,944
2018-08-25T06:30:38.936Z,964
2018-08-25T06:30:59.203Z,976
2018-08-25T06:31:19.427Z,992
2018-08-25T06:31:39.633Z,1012
2018-08-25T06:31:59.834Z,1052
2018-08-25T06:32:20.079Z,1104
2018-08-25T06:32:40.351Z,1160
2018-08-25T06:33:00.701Z,1216
2018-08-25T06:33:20.960Z,1264
2018-08-25T06:33:41.187Z,1312
2018-08-25T06:34:01.414Z,1348
2018-08-25T06:34:21.740Z,1364
2018-08-25T06:34:41.980Z,1360
2018-08-25T06:35:02.168Z,1332
2018-08-25T06:35:22.368Z,1304
2018-08-25T06:35:42.550Z,1276
2018-08-25T06:36:02.820Z,1252
2018-08-25T06:36:22.983Z,1240
2018-08-25T06:36:43.262Z,1232
2018-08-25T06:37:03.306Z,1224
2018-08-25T06:37:23.464Z,1208
2018-08-25T06:37:43.643Z,1188
2018-08-25T06:38:03.850Z,1176
2018-08-25T06:38:24.068Z,1172
2018-08-25T06:38:44.299Z,1176
2018-08-25T06:39:04.483Z,1188
2018-08-25T06:39:24.639Z,1216
2018-08-25T06:39:44.828Z,1252
2018-08-25T06:40:04.968Z,1292
2018-08-25T06:40:25.185Z,1312
2018-08-25T06:40:45.349Z,1324
2018-08-25T06:41:05.542Z,1320
2018-08-25T06:41:25.770Z,1304
2018-08-25T06:41:45.945Z,1284
2018-08-25T06:46:57.125Z,1000
2018-08-25T06:47:17.285Z,1008
2018-08-25T06:47:37.447Z,1016
2018-08-25T06:47:57.628Z,1012
2018-08-25T06:48:17.748Z,992
2018-08-25T06:48:37.947Z,964
2018-08-25T06:48:58.118Z,936
2018-08-25T06:49:18.268Z,912
2018-08-25T06:49:38.407Z,888
2018-08-25T06:49:58.616Z,872
2018-08-25T06:50:18.810Z,852
2018-08-25T06:50:38.977Z,840
2018-08-25T06:50:59.151Z,816
2018-08-25T06:51:19.321Z,780
2018-08-25T06:51:39.492Z,752
2018-08-25T06:51:59.658Z,708
2018-08-25T06:52:19.813Z,672
2018-08-25T06:52:39.953Z,636
2018-08-25T06:53:00.109Z,604
2018-08-25T06:53:20.432Z,552
2018-08-25T06:53:40.426Z,508
2018-08-25T06:54:00.627Z,480
2018-08-25T06:54:20.795Z,456
2018-08-25T06:54:40.966Z,432
2018-08-25T07:00:40.877Z,852
2018-08-25T07:01:01.026Z,880
2018-08-25T07:01:21.186Z,916
2018-08-25T07:01:41.401Z,948
2018-08-25T07:02:01.748Z,960
2018-08-25T07:02:22.029Z,964
2018-08-25T07:02:42.286Z,968
2018-08-25T07:03:02.496Z,972
2018-08-25T07:03:22.700Z,984
2018-08-25T07:03:42.912Z,1004
2018-08-25T07:04:03.189Z,1028
2018-08-25T07:04:23.412Z,1056
2018-08-25T07:04:43.580Z,1088
2018-08-25T07:05:03.729Z,1120
2018-08-25T07:05:23.915Z,1140
2018-08-25T07:05:44.149Z,1168
2018-08-25T07:06:04.388Z,1192
2018-08-25T07:06:24.594Z,1208
2018-08-25T07:06:44.778Z,1216
2018-08-25T07:07:04.953Z,1224
2018-08-25T07:07:25.113Z,1232
2018-08-25T07:07:45.314Z,1244
2018-08-25T07:08:05.462Z,1260
2018-08-25T07:08:25.677Z,1272
2018-08-25T07:08:45.821Z,1288
2018-08-25T07:09:05.964Z,1312
2018-08-25T07:09:26.126Z,1328
2018-08-25T07:09:46.303Z,1352
2018-08-25T07:10:06.484Z,1380
2018-08-25T07:10:26.712Z,1416
2018-08-25T07:10:46.887Z,1456
2018-08-25T07:11:07.065Z,1504
2018-08-25T07:11:27.353Z,1548
2018-08-25T07:11:47.545Z,1596
2018-08-25T07:12:07.734Z,1640
2018-08-25T07:12:27.915Z,1672
2018-08-25T07:12:48.138Z,1692
2018-08-25T07:13:08.336Z,1708
2018-08-25T07:13:28.546Z,1716
2018-08-25T07:13:48.772Z,1712
2018-08-25T07:14:09.257Z,1708
2018-08-25T07:14:30.364Z,1700
2018-08-25T07:14:51.491Z,1700
2018-08-25T07:15:11.966Z,1700
2018-08-25T07:15:32.199Z,1696
2018-08-25T07:15:52.405Z,1676
2018-08-25T07:16:12.601Z,1648
2018-08-25T07:16:32.766Z,1616
2018-08-25T07:16:52.943Z,1600
2018-08-25T07:17:13.130Z,1584
2018-08-25T07:17:33.318Z,1572
2018-08-25T07:17:53.521Z,1544
2018-08-25T07:18:13.714Z,1508
2018-08-25T07:18:33.889Z,1456
2018-08-25T07:18:54.134Z,1416
2018-08-25T07:19:14.523Z,1368
2018-08-25T07:19:34.765Z,1312
2018-08-25T07:19:54.921Z,1256
2018-08-25T07:20:16.007Z,1204
2018-08-25T07:20:36.165Z,1156
2018-08-25T07:20:56.405Z,1120
2018-08-25T07:21:16.631Z,1100
2018-08-25T07:21:36.918Z,1092
2018-08-25T07:21:57.121Z,1084
2018-08-25T07:22:17.329Z,1084
2018-08-25T07:22:37.523Z,1088
2018-08-25T07:22:57.735Z,1084
2018-08-25T07:23:17.984Z,1068
2018-08-25T07:23:38.203Z,1056
2018-08-25T07:23:58.460Z,1040
2018-08-25T07:24:18.653Z,1028
2018-08-25T07:24:38.832Z,1016
2018-08-25T07:24:59.054Z,1000
2018-08-25T07:25:19.248Z,980
2018-08-25T07:25:39.440Z,964
2018-08-25T07:25:59.714Z,948
2018-08-25T07:26:19.946Z,944
2018-08-25T07:26:40.163Z,944
2018-08-25T07:27:00.472Z,948
2018-08-25T07:27:20.755Z,956
2018-08-25T07:27:41.070Z,972
2018-08-25T07:28:01.333Z,996
2018-08-25T07:28:21.578Z,1020
2018-08-25T07:28:41.799Z,1044
2018-08-25T07:29:02.035Z,1068
2018-08-25T07:29:22.219Z,1088
2018-08-25T07:29:42.441Z,1112
2018-08-25T07:30:02.686Z,1136
2018-08-25T07:30:22.886Z,1160
2018-08-25T07:30:44.133Z,1180
2018-08-25T07:31:04.347Z,1212
2018-08-25T07:31:24.601Z,1252
2018-08-25T07:31:44.827Z,1304
2018-08-25T07:32:05.095Z,1360
2018-08-25T07:32:25.384Z,1432
2018-08-25T07:32:45.514Z,1508
2018-08-25T07:33:05.768Z,1604
2018-08-25T07:33:25.982Z,1696
2018-08-25T07:33:46.213Z,1784
2018-08-25T07:34:06.441Z,1872
2018-08-25T07:34:26.602Z,1964
2018-08-25T07:34:46.789Z,2044
2018-08-25T07:35:06.947Z,2120
2018-08-25T07:35:27.140Z,2184
2018-08-25T07:35:47.328Z,2224
2018-08-25T07:36:07.482Z,2240
2018-08-25T07:36:27.717Z,2252
2018-08-25T07:36:47.912Z,2256
2018-08-25T07:37:08.081Z,2232
2018-08-25T07:37:28.280Z,2196
2018-08-25T07:37:48.447Z,2148
2018-08-25T07:38:08.660Z,2088
2018-08-25T07:38:28.805Z,2040
2018-08-25T07:38:48.975Z,1992
2018-08-25T07:39:09.150Z,1944
2018-08-25T07:39:29.366Z,1896
2018-08-25T07:39:49.570Z,1832
2018-08-25T07:40:09.874Z,1752
2018-08-25T07:40:30.097Z,1664
2018-08-25T07:40:50.265Z,1576
2018-08-25T07:41:10.462Z,1500
2018-08-25T07:41:30.660Z,1436
2018-08-25T07:41:50.827Z,1372
2018-08-25T07:42:11.041Z,1324
2018-08-25T07:42:31.213Z,1284
2018-08-25T07:42:51.384Z,1256
2018-08-25T07:43:11.616Z,1236
2018-08-25T07:43:31.785Z,1224
2018-08-25T07:43:52.090Z,1208
2018-08-25T07:44:12.294Z,1196
2018-08-25T07:44:32.552Z,1184
2018-08-25T07:44:52.745Z,1176
2018-08-25T07:45:12.927Z,1164
2018-08-25T07:45:33.152Z,1152
2018-08-25T07:45:53.301Z,1148
2018-08-25T07:46:13.480Z,1136
2018-08-25T07:46:33.644Z,1136
2018-08-25T07:46:53.876Z,1132
2018-08-25T07:47:14.080Z,1128
2018-08-25T07:47:34.256Z,1128
2018-08-25T07:47:54.428Z,1124
2018-08-25T07:48:14.710Z,1112
2018-08-25T07:48:34.902Z,1100
2018-08-25T07:48:55.049Z,1088
2018-08-25T07:49:15.328Z,1076
2018-08-25T07:49:35.519Z,1064
2018-08-25T07:49:56.205Z,1052
2018-08-25T07:50:16.334Z,1040
2018-08-25T07:50:36.533Z,1024
2018-08-25T07:50:56.816Z,1016
2018-08-25T07:51:16.988Z,1000
2018-08-25T07:51:37.142Z,988
2018-08-25T07:51:57.320Z,976
2018-08-25T07:52:17.581Z,960
2018-08-25T07:52:37.788Z,952
2018-08-25T07:52:57.960Z,948
2018-08-25T07:53:18.346Z,944
2018-08-25T07:53:38.577Z,944
2018-08-25T07:53:58.739Z,940
2018-08-25T07:54:18.962Z,944
2018-08-25T07:54:39.187Z,944
2018-08-25T07:54:59.391Z,948
2018-08-25T07:55:19.577Z,952
2018-08-25T07:55:39.807Z,956
2018-08-25T07:55:59.982Z,964
2018-08-25T07:56:20.165Z,976
2018-08-25T07:56:40.366Z,976
2018-08-25T07:57:00.650Z,968
2018-08-25T07:57:20.946Z,980
2018-08-25T07:57:41.505Z,980
2018-08-25T07:58:01.718Z,980
2018-08-25T07:58:22.088Z,976
2018-08-25T07:58:42.301Z,964
2018-08-25T07:59:02.574Z,956
2018-08-25T07:59:22.868Z,932
2018-08-25T07:59:42.958Z,912
2018-08-25T08:00:03.223Z,900
2018-08-25T08:00:24.413Z,908
2018-08-25T08:00:44.724Z,956
2018-08-25T08:01:04.951Z,948
2018-08-25T08:01:25.205Z,932
2018-08-25T08:01:46.080Z,920
2018-08-25T08:02:06.435Z,896
2018-08-25T08:02:26.697Z,884
2018-08-25T08:02:47.007Z,848
2018-08-25T08:03:07.208Z,848
2018-08-25T08:03:27.591Z,888
2018-08-25T08:10:32.770Z,1144
2018-08-25T08:10:52.991Z,1152
2018-08-25T08:11:13.188Z,1224
2018-08-25T08:11:35.130Z,1256
2018-08-25T08:11:55.409Z,1256
2018-08-25T08:12:15.570Z,1244
2018-08-25T08:12:35.746Z,1244
2018-08-25T08:12:55.913Z,1236
2018-08-25T08:13:16.103Z,1232
2018-08-25T08:13:36.247Z,1260
2018-08-25T08:13:56.452Z,1252
2018-08-25T08:14:16.761Z,1228
2018-08-25T08:14:36.956Z,1232
2018-08-25T08:14:57.206Z,1212
2018-08-25T08:15:17.394Z,1180
2018-08-25T08:15:37.622Z,1124
2018-08-25T08:15:58.428Z,1172
2018-08-25T08:16:18.941Z,1264
2018-08-25T08:16:39.196Z,1280
2018-08-25T08:16:59.516Z,1296
2018-08-25T08:17:19.704Z,1332
2018-08-25T08:17:39.843Z,1424
2018-08-25T08:18:00.047Z,1492
2018-08-25T08:18:20.207Z,1572
2018-08-25T08:18:40.457Z,1704
2018-08-25T08:19:00.658Z,1768
2018-08-25T08:19:20.797Z,1828
2018-08-25T08:19:40.980Z,1928
2018-08-25T08:20:01.191Z,1960
2018-08-25T08:20:21.440Z,1992
2018-08-25T08:20:41.729Z,2044
2018-08-25T08:21:01.898Z,2108
2018-08-25T08:21:22.111Z,2156
2018-08-25T08:21:42.285Z,2188
2018-08-25T08:22:02.516Z,2228
2018-08-25T08:22:22.667Z,2264
2018-08-25T08:22:42.819Z,2308
2018-08-25T08:23:02.998Z,2356
2018-08-25T08:23:23.443Z,2392
2018-08-25T08:23:43.621Z,2416
2018-08-25T08:24:03.817Z,2444
2018-08-25T08:24:24.020Z,2472
2018-08-25T08:24:44.276Z,2496
2018-08-25T08:25:04.492Z,2512
2018-08-25T08:25:24.710Z,2536
2018-08-25T08:25:44.980Z,2560
2018-08-25T08:26:05.169Z,2572
2018-08-25T08:26:25.405Z,2584
2018-08-25T08:26:45.571Z,2620
2018-08-25T08:27:05.793Z,2636
2018-08-25T08:27:26.003Z,2668
2018-08-25T08:27:46.198Z,2692
2018-08-25T08:28:06.380Z,2728
2018-08-25T08:28:26.620Z,2768
2018-08-25T08:28:46.839Z,2784
2018-08-25T08:29:07.022Z,2796
2018-08-25T08:29:27.223Z,2768
2018-08-25T08:29:47.392Z,2748
2018-08-25T08:30:07.556Z,2748
2018-08-25T08:30:27.721Z,2752
2018-08-25T08:30:48.144Z,2788
2018-08-25T08:31:08.397Z,2800
2018-08-25T08:31:28.630Z,2816
2018-08-25T08:31:48.891Z,2820
2018-08-25T08:32:09.072Z,2828
2018-08-25T08:32:29.298Z,2828
2018-08-25T08:32:49.559Z,2812
2018-08-25T08:33:09.983Z,2792
2018-08-25T08:33:30.064Z,2780
2018-08-25T08:33:50.250Z,2784
2018-08-25T08:34:10.457Z,2800
2018-08-25T08:34:30.668Z,2808
2018-08-25T08:34:50.832Z,2784
2018-08-25T08:35:11.182Z,2756
2018-08-25T08:35:31.359Z,2720
2018-08-25T08:35:51.613Z,2688
2018-08-25T08:36:11.796Z,2660
2018-08-25T08:36:32.097Z,2652
2018-08-25T08:36:52.254Z,2652
2018-08-25T08:37:12.453Z,2656
2018-08-25T08:37:32.647Z,2676
2018-08-25T08:37:52.805Z,2708
2018-08-25T08:38:12.949Z,2736
2018-08-25T08:38:33.107Z,2756
2018-08-25T08:38:53.274Z,2776
2018-08-25T08:39:13.441Z,2804
2018-08-25T08:39:33.696Z,2828
2018-08-25T08:39:53.766Z,2840
2018-08-25T08:40:13.925Z,2832
2018-08-25T08:40:34.094Z,2828
2018-08-25T08:40:54.256Z,2828
2018-08-25T08:41:14.389Z,2836
2018-08-25T08:41:34.529Z,2828
2018-08-25T08:41:54.683Z,2812
2018-08-25T08:42:14.841Z,2792
2018-08-25T08:42:35.182Z,2788
2018-08-25T08:42:55.376Z,2776
2018-08-25T08:43:15.530Z,2776
2018-08-25T08:43:35.695Z,2776
2018-08-25T08:43:55.867Z,2772
2018-08-25T08:44:16.001Z,2792
2018-08-25T08:44:36.173Z,2812
2018-08-25T08:44:56.323Z,2836
2018-08-25T08:45:16.550Z,2868
2018-08-25T08:45:36.745Z,2868
2018-08-25T08:45:56.910Z,2872
2018-08-25T08:46:17.128Z,2888
2018-08-25T08:46:37.290Z,2892
2018-08-25T08:46:57.454Z,2880
2018-08-25T08:47:17.618Z,2868
2018-08-25T08:47:38.008Z,2844
2018-08-25T08:47:58.108Z,2828
2018-08-25T08:48:18.216Z,2828
2018-08-25T08:48:38.377Z,2816
2018-08-25T08:48:58.541Z,2808
2018-08-25T08:49:18.702Z,2800
2018-08-25T08:49:49.569Z,2792
2018-08-25T08:50:09.730Z,2796
2018-08-25T08:50:30.029Z,2804
2018-08-25T08:50:50.094Z,2812
2018-08-25T08:51:10.271Z,2832
2018-08-25T08:51:30.460Z,2868
2018-08-25T08:51:50.607Z,2904
2018-08-25T08:52:10.763Z,2948
2018-08-25T08:52:30.925Z,3000
2018-08-25T08:52:51.076Z,3032
2018-08-25T08:53:11.275Z,3056
2018-08-25T08:53:31.406Z,3048
2018-08-25T08:53:51.565Z,3060
2018-08-25T08:54:11.762Z,3064
2018-08-25T08:54:31.896Z,3056
2018-08-25T08:54:52.065Z,3052
2018-08-25T08:55:12.232Z,3024
2018-08-25T08:55:32.398Z,3000
2018-08-25T08:55:52.570Z,2976
2018-08-25T08:56:12.777Z,2984
2018-08-25T08:56:32.929Z,2988
2018-08-25T08:56:53.083Z,2996
2018-08-25T08:57:13.265Z,3004
2018-08-25T08:57:33.400Z,3000
2018-08-25T08:57:53.555Z,2980
2018-08-25T08:58:13.762Z,2960
2018-08-25T08:58:33.912Z,2936
2018-08-25T08:58:54.064Z,2900
2018-08-25T08:59:14.238Z,2864
2018-08-25T08:59:34.393Z,2832
2018-08-25T08:59:54.628Z,2792
2018-08-25T09:00:14.805Z,2756
2018-08-25T09:00:34.991Z,2716
2018-08-25T09:00:55.121Z,2660
2018-08-25T09:01:15.325Z,2608
2018-08-25T09:01:35.499Z,2560
2018-08-25T09:01:55.662Z,2508
2018-08-25T09:02:15.830Z,2464
2018-08-25T09:02:35.973Z,2416
2018-08-25T09:02:56.142Z,2372
2018-08-25T09:03:16.337Z,2328
2018-08-25T09:03:36.561Z,2304
2018-08-25T09:03:56.714Z,2276
2018-08-25T09:04:16.856Z,2256
2018-08-25T09:04:37.021Z,2244
2018-08-25T09:04:57.202Z,2256
2018-08-25T09:05:17.366Z,2264
2018-08-25T09:05:37.518Z,2276
2018-08-25T09:05:57.658Z,2292
2018-08-25T09:06:17.829Z,2308
2018-08-25T09:06:37.982Z,2316
2018-08-25T09:06:58.159Z,2312
2018-08-25T09:07:18.308Z,2300
2018-08-25T09:07:38.474Z,2276
2018-08-25T09:07:58.655Z,2256
2018-08-25T09:08:18.832Z,2244
2018-08-25T09:08:39.033Z,2224
2018-08-25T09:08:59.257Z,2220
2018-08-25T09:09:19.443Z,2224
2018-08-25T09:09:39.648Z,2244
2018-08-25T09:09:59.833Z,2260
2018-08-25T09:10:19.981Z,2276
2018-08-25T09:11:00.728Z,2304
2018-08-25T09:11:20.946Z,2324
2018-08-25T09:11:41.363Z,2332
2018-08-25T09:12:01.673Z,2348
2018-08-25T09:12:21.824Z,2356
2018-08-25T09:12:43.265Z,2360
2018-08-25T09:13:03.424Z,2372
2018-08-25T09:13:23.604Z,2376
2018-08-25T09:13:44.325Z,2364
2018-08-25T09:14:04.474Z,2336
2018-08-25T09:14:24.660Z,2320
2018-08-25T09:14:44.836Z,2328
2018-08-25T09:15:05.044Z,2336
2018-08-25T09:15:25.236Z,2336
2018-08-25T09:15:45.405Z,2316
2018-08-25T09:16:05.583Z,2276
2018-08-25T09:16:25.775Z,2256
2018-08-25T09:16:45.933Z,2232
2018-08-25T09:17:06.099Z,2212
2018-08-25T09:17:26.270Z,2200
2018-08-25T09:17:46.408Z,2192
2018-08-25T09:18:06.558Z,2204
2018-08-25T09:18:26.817Z,2192
2018-08-25T09:18:46.997Z,2172
2018-08-25T09:19:07.153Z,2144
2018-08-25T09:19:27.372Z,2100
2018-08-25T09:19:47.445Z,2052
2018-08-25T09:20:07.605Z,2008
2018-08-25T09:20:27.780Z,1968
2018-08-25T09:20:48.081Z,1944
2018-08-25T09:21:08.247Z,1900
2018-08-25T09:21:28.401Z,1872
2018-08-25T09:21:48.555Z,1836
2018-08-25T09:22:08.715Z,1824
2018-08-25T09:22:28.843Z,1872
2018-08-25T09:22:49.002Z,1888
2018-08-25T09:23:09.141Z,1900
2018-08-25T09:23:29.298Z,1936
2018-08-25T09:23:49.457Z,1896
2018-08-25T09:24:09.660Z,1916
2018-08-25T09:24:29.816Z,1960
2018-08-25T09:24:49.964Z,2000
2018-08-25T09:25:10.115Z,2024
2018-08-25T09:25:30.282Z,2052
2018-08-25T09:25:50.457Z,2056
2018-08-25T09:26:10.601Z,2044
2018-08-25T09:26:30.759Z,2004
2018-08-25T09:26:50.976Z,1976
2018-08-25T09:27:11.167Z,1904
2018-08-25T09:27:31.608Z,1912
2018-08-25T09:27:51.811Z,2012
2018-08-25T09:28:12.017Z,2032
2018-08-25T09:28:32.167Z,1968
2018-08-25T09:28:52.378Z,1916
2018-08-25T09:29:12.543Z,1956
2018-08-25T09:29:32.699Z,2084
2018-08-25T09:29:52.908Z,2192
2018-08-25T09:30:13.109Z,2260
2018-08-25T09:30:33.259Z,2316
2018-08-25T09:30:53.468Z,2352
2018-08-25T09:31:13.655Z,2396
2018-08-25T09:31:33.815Z,2428
2018-08-25T09:31:54.000Z,2456
2018-08-25T09:32:14.174Z,2496
2018-08-25T09:32:34.324Z,2508
2018-08-25T09:32:54.488Z,2520
2018-08-25T09:33:14.621Z,2540
2018-08-25T09:33:34.777Z,2532
2018-08-25T09:33:54.950Z,2568
2018-08-25T09:34:15.065Z,2568
2018-08-25T09:34:35.230Z,2576
2018-08-25T09:34:55.399Z,2616
2018-08-25T09:35:15.552Z,2620
2018-08-25T09:35:35.739Z,2640
2018-08-25T09:35:56.021Z,2644
2018-08-25T09:36:16.219Z,2660
2018-08-25T09:36:36.924Z,2684
2018-08-25T09:36:57.189Z,2696
2018-08-25T09:37:16.999Z,2684
2018-08-25T09:37:37.175Z,2588
2018-08-25T09:37:57.477Z,2588
2018-08-25T09:38:17.626Z,2580
2018-08-25T09:38:37.793Z,2616
2018-08-25T09:38:57.977Z,2608
2018-08-25T09:39:18.145Z,2660
2018-08-25T09:39:38.432Z,2704
2018-08-25T09:39:58.588Z,2716
2018-08-25T09:40:18.749Z,2744
2018-08-25T09:40:38.993Z,2696
2018-08-25T09:40:59.151Z,2672
2018-08-25T09:41:19.300Z,2608
2018-08-25T09:41:39.521Z,2568
2018-08-25T09:41:59.622Z,2572
2018-08-25T09:42:19.778Z,2592
2018-08-25T09:42:39.921Z,2616
2018-08-25T09:43:00.102Z,2648
2018-08-25T09:43:20.237Z,2668
2018-08-25T09:43:40.387Z,2664
2018-08-25T09:44:00.561Z,2652
2018-08-25T09:44:20.715Z,2636
2018-08-25T09:44:40.882Z,2620
2018-08-25T09:45:01.031Z,2652
2018-08-25T09:45:21.190Z,2664
2018-08-25T09:45:41.327Z,2668
2018-08-25T09:46:01.603Z,2676
2018-08-25T09:46:21.853Z,2692
2018-08-25T09:46:42.035Z,2712
2018-08-25T09:47:03.108Z,2732
2018-08-25T09:47:23.220Z,2716
2018-08-25T09:47:43.464Z,2708
2018-08-25T09:48:03.679Z,2716
2018-08-25T09:48:23.914Z,2760
2018-08-25T09:48:44.082Z,2752
2018-08-25T09:49:04.312Z,2756
2018-08-25T09:49:24.501Z,2768
2018-08-25T09:49:44.742Z,2800
2018-08-25T09:50:05.024Z,2856
2018-08-25T09:50:25.795Z,2900
2018-08-25T09:50:46.199Z,2888
2018-08-25T09:51:06.546Z,2948
2018-08-25T09:51:26.803Z,2912
2018-08-25T09:51:46.991Z,2872
2018-08-25T09:52:07.182Z,2916
2018-08-25T09:52:27.380Z,2896
2018-08-25T09:52:47.773Z,2868
2018-08-25T09:53:08.027Z,2868
2018-08-25T09:53:28.294Z,2924
2018-08-25T09:53:48.771Z,2872
2018-08-25T09:54:09.103Z,2888
2018-08-25T09:54:29.329Z,2956
2018-08-25T09:54:49.535Z,2892
2018-08-25T09:55:09.959Z,3000
2018-08-25T09:55:30.265Z,2888
2018-08-25T09:55:50.424Z,2924
2018-08-25T09:56:10.689Z,3044
2018-08-25T09:56:31.214Z,2948
2018-08-25T09:56:51.497Z,2940
2018-08-25T09:57:11.710Z,2892
2018-08-25T09:57:31.939Z,2896
2018-08-25T09:57:52.173Z,2812
2018-08-25T09:58:12.375Z,2768
2018-08-25T09:58:32.623Z,2808
2018-08-25T13:35:58.819Z,1068
2018-08-25T13:36:19.033Z,1068
2018-08-25T13:36:39.171Z,1080
2018-08-25T13:36:59.421Z,1080
2018-08-25T13:37:19.712Z,1064
2018-08-25T13:37:40.099Z,1056
2018-08-25T13:38:03.466Z,1044
2018-08-25T13:38:24.521Z,1032
2018-08-25T13:38:44.754Z,1012
2018-08-25T13:39:05.059Z,984
2018-08-25T13:39:25.354Z,952
2018-08-25T13:39:45.565Z,924
2018-08-25T13:40:05.909Z,896
2018-08-25T13:40:26.021Z,884
2018-08-25T13:40:46.240Z,876
2018-08-25T13:41:06.383Z,876
2018-08-25T13:41:26.619Z,872
2018-08-25T13:41:46.820Z,880
2018-08-25T13:42:07.005Z,880
2018-08-25T13:42:27.176Z,888
2018-08-25T13:42:47.368Z,900
2018-08-25T13:57:17.282Z,1076
2018-08-25T13:57:37.410Z,1112
2018-08-25T13:57:57.608Z,1168
2018-08-25T13:58:17.876Z,1208
2018-08-25T13:58:37.914Z,1216
2018-08-25T13:58:58.075Z,1184
2018-08-25T13:59:18.198Z,1132
2018-08-25T13:59:38.425Z,1076
2018-08-25T13:59:58.579Z,1044
2018-08-25T14:00:18.724Z,1024
2018-08-25T14:00:38.885Z,1008
2018-08-25T14:00:59.019Z,1008
2018-08-25T14:01:19.160Z,1008
2018-08-25T14:01:39.340Z,1016
2018-08-25T14:01:59.505Z,1020
2018-08-25T14:02:19.662Z,1020
2018-08-25T14:02:40.746Z,1020
2018-08-25T14:03:01.048Z,1024
2018-08-25T14:03:21.199Z,1016
2018-08-25T14:03:41.339Z,1004
2018-08-25T14:04:01.496Z,1000
2018-08-25T14:04:21.676Z,1004
2018-08-25T14:04:41.868Z,1004
2018-08-25T14:05:02.153Z,992
2018-08-25T14:05:22.312Z,968
2018-08-25T14:05:42.474Z,960
2018-08-25T14:06:02.637Z,944
2018-08-25T14:14:53.632Z,1176
2018-08-25T14:15:13.879Z,1160
2018-08-25T14:15:34.188Z,1140
2018-08-25T14:15:54.439Z,1128
2018-08-25T14:16:14.710Z,1132
2018-08-25T14:16:34.917Z,1140
2018-08-25T14:16:55.107Z,1132
2018-08-25T14:17:15.298Z,1120
2018-08-25T14:17:35.466Z,1108
2018-08-25T14:17:55.710Z,1096
2018-08-25T14:18:15.882Z,1088
2018-08-25T14:18:36.161Z,1084
2018-08-25T14:18:56.274Z,1088
2018-08-25T14:19:16.518Z,1084
2018-08-25T14:19:36.665Z,1084
2018-08-25T14:19:56.877Z,1076
2018-08-25T14:20:17.130Z,1076
2018-08-25T14:20:37.444Z,1060
2018-08-25T14:20:57.629Z,1040
2018-08-25T14:21:17.819Z,1028
2018-08-25T14:21:37.980Z,1012
2018-08-25T14:38:30.901Z,1300
2018-08-25T14:38:51.323Z,1352
2018-08-25T14:39:11.610Z,1392
2018-08-25T14:39:31.759Z,1428
2018-08-25T14:39:51.912Z,1476
2018-08-25T14:40:12.103Z,1532
2018-08-25T14:40:32.420Z,1576
2018-08-25T14:40:52.627Z,1632
2018-08-25T14:41:12.849Z,1660
2018-08-25T14:41:33.573Z,1700
2018-08-25T14:41:53.817Z,1732
2018-08-25T14:42:14.098Z,1764
2018-08-25T14:42:34.383Z,1800
2018-08-25T14:42:54.612Z,1824
2018-08-25T14:43:14.811Z,1852
2018-08-25T14:43:35.018Z,1892
2018-08-25T14:43:55.207Z,1932
2018-08-25T14:44:15.461Z,1900
2018-08-25T14:44:35.758Z,1896
2018-08-25T14:44:56.031Z,1932
2018-08-25T14:45:16.286Z,1972
2018-08-25T14:45:36.624Z,2008
2018-08-25T14:45:56.907Z,2056
2018-08-25T14:46:17.169Z,2088
2018-08-25T14:46:37.530Z,2164
2018-08-25T14:46:57.950Z,2160
2018-08-25T14:47:18.476Z,2168
2018-08-25T14:47:38.832Z,2184
2018-08-25T14:47:59.032Z,2180
2018-08-25T14:48:19.297Z,2144
2018-08-25T14:48:39.642Z,2140
2018-08-25T14:48:59.933Z,2160
2018-08-25T14:49:20.162Z,2188
2018-08-25T14:49:40.516Z,2268
2018-08-25T14:50:00.745Z,2304
2018-08-25T14:50:20.984Z,2308
2018-08-25T14:50:41.183Z,2308
2018-08-25T14:51:01.351Z,2296
2018-08-25T14:51:21.567Z,2284
2018-08-25T14:51:41.950Z,2232
2018-08-25T14:52:02.628Z,2224
2018-08-25T14:52:22.760Z,2204
2018-08-25T14:52:42.955Z,2156
2018-08-25T14:53:03.124Z,2132
2018-08-25T14:53:24.182Z,2128
2018-08-25T14:53:44.378Z,2108
2018-08-25T14:54:04.527Z,2060
2018-08-25T14:54:24.741Z,2016
2018-08-25T14:54:45.221Z,1944
2018-08-25T14:55:05.439Z,1852
2018-08-25T14:55:26.571Z,1752
2018-08-25T14:55:46.863Z,1704
2018-08-25T14:56:07.381Z,1648
2018-08-25T14:56:27.699Z,1620
2018-08-25T14:56:47.897Z,1592
2018-08-25T14:57:08.232Z,1596
2018-08-25T14:57:29.554Z,1600
2018-08-25T14:57:50.203Z,1632
2018-08-25T14:58:10.447Z,1664
2018-08-25T14:58:30.737Z,1644
2018-08-25T14:58:51.183Z,1620
2018-08-25T14:59:11.496Z,1628
2018-08-25T14:59:31.797Z,1620
2018-08-25T14:59:52.143Z,1616
2018-08-25T15:00:12.371Z,1596
2018-08-25T15:00:32.666Z,1584
2018-08-25T15:00:52.957Z,1568
2018-08-25T15:01:13.583Z,1544
2018-08-25T15:01:34.035Z,1512
2018-08-25T15:01:54.358Z,1488
2018-08-25T15:02:14.625Z,1476
2018-08-25T15:02:35.032Z,1476
2018-08-25T15:02:55.232Z,1632
2018-08-25T15:03:15.679Z,1632
2018-08-25T15:03:36.572Z,1472
2018-08-25T15:03:56.797Z,1472
2018-08-25T15:04:17.096Z,1496
2018-08-25T15:04:37.423Z,1484
2018-08-25T15:04:57.637Z,1484
2018-08-25T15:05:17.821Z,1488
2018-08-25T15:05:37.966Z,1500
2018-08-25T15:05:58.140Z,1512
2018-08-25T15:06:18.353Z,1504
2018-08-25T15:06:38.543Z,1488
2018-08-25T15:06:58.728Z,1476
2018-08-25T15:07:18.914Z,1480
2018-08-25T15:07:40.083Z,1488
2018-08-25T15:08:00.443Z,1492
2018-08-25T15:08:20.711Z,1496
2018-08-25T15:08:40.916Z,1504
2018-08-25T15:09:01.176Z,1528
2018-08-25T15:09:21.394Z,1516
2018-08-25T15:09:42.092Z,1520
2018-08-25T15:10:02.424Z,1516
2018-08-25T15:10:22.644Z,1516
2018-08-25T15:10:42.782Z,1512
2018-08-25T15:11:03.004Z,1508
2018-08-25T15:11:23.220Z,1500
2018-08-25T15:11:43.459Z,1488
2018-08-25T15:12:03.699Z,1480
2018-08-25T15:12:23.906Z,1468
2018-08-25T15:12:44.291Z,1448
2018-08-25T15:13:04.456Z,1424
2018-08-25T15:13:24.713Z,1400